Time;durP1;ratioP1;P1;durP2;ratioP2;P2;SDS_P1;SDS_P2;PMS_P1;PMS_P2;Temp;Humidity;BMP_temperature;BMP_pressure;BME280_temperature;BME280_humidity;BME280_pressure;Samples;Min_cycle;Max_cycle;Signal;HPM_P1;HPM_P2
2023/04/13 00:00:10;;;;;;;26.53;16.30;;;4.90;99.90;4.20;99325;;;;567539;249;24089;-75
2023/04/13 00:02:38;;;;;;;34.38;22.98;;;5.00;99.90;4.20;99320;;;;561388;249;35349;-77
2023/04/13 00:05:04;;;;;;;31.03;17.03;;;5.00;99.90;4.30;99321;;;;574092;248;24097;-78
2023/04/13 00:07:33;;;;;;;24.87;13.70;;;5.10;99.90;4.30;99315;;;;565548;249;24102;-76
2023/04/13 00:10:02;;;;;;;28.33;15.67;;;5.10;99.90;4.40;99319;;;;570970;249;24053;-78
2023/04/13 00:12:29;;;;;;;26.73;14.53;;;5.20;99.90;4.40;99308;;;;570955;249;24134;-79
2023/04/13 00:14:56;;;;;;;26.93;15.97;;;5.20;99.90;4.50;99305;;;;565122;251;24136;-76
2023/04/13 00:17:28;;;;;;;38.53;23.80;;;5.40;99.90;4.50;99318;;;;563053;249;35347;-75
2023/04/13 00:19:59;;;;;;;30.70;17.17;;;5.40;99.90;4.60;99317;;;;568001;249;24106;-76
2023/04/13 00:22:30;;;;;;;30.10;14.37;;;5.40;99.90;4.60;99319;;;;568109;249;24083;-78
2023/04/13 00:24:58;;;;;;;25.77;14.80;;;5.40;99.90;4.60;99322;;;;568089;249;24152;-75
2023/04/13 00:27:26;;;;;;;22.50;13.87;;;5.40;99.90;4.50;99314;;;;567783;249;24096;-76
2023/04/13 00:29:56;;;;;;;23.30;15.07;;;5.40;99.90;4.50;99315;;;;567730;249;24102;-76
2023/04/13 00:32:24;;;;;;;22.80;12.93;;;5.40;99.90;4.50;99317;;;;568171;247;24195;-74
2023/04/13 00:34:56;;;;;;;23.67;14.30;;;5.40;99.90;4.50;99310;;;;569118;249;24090;-75
2023/04/13 00:37:20;;;;;;;22.53;13.87;;;5.40;99.90;4.60;99307;;;;568631;249;24175;-77
2023/04/13 00:39:48;;;;;;;26.27;14.23;;;5.40;99.90;4.60;99299;;;;568375;249;24100;-75
2023/04/13 00:42:16;;;;;;;23.23;14.53;;;5.50;99.90;4.60;99298;;;;568462;249;24098;-76
2023/04/13 00:44:43;;;;;;;24.83;13.80;;;5.50;99.90;4.70;99290;;;;576736;249;24125;-75
2023/04/13 00:47:11;;;;;;;26.03;14.33;;;5.50;99.90;4.70;99292;;;;568062;249;24094;-75
2023/04/13 00:49:39;;;;;;;26.00;14.60;;;5.50;99.90;4.70;99290;;;;570853;249;24153;-76
2023/04/13 00:52:10;;;;;;;25.67;14.13;;;5.50;99.90;4.70;99291;;;;567924;249;24097;-74
2023/04/13 00:54:35;;;;;;;24.70;13.73;;;5.60;99.90;4.70;99289;;;;567998;249;24115;-75
2023/04/13 00:57:04;;;;;;;21.23;12.97;;;5.50;99.90;4.70;99296;;;;567862;249;24125;-75
2023/04/13 00:59:31;;;;;;;21.70;13.17;;;5.50;99.90;4.60;99298;;;;568184;249;24110;-74
2023/04/13 01:02:03;;;;;;;26.57;14.70;;;5.50;99.90;4.60;99308;;;;568230;249;24082;-79
2023/04/13 01:04:29;;;;;;;25.63;14.40;;;5.40;99.90;4.50;99318;;;;568181;249;24216;-74
2023/04/13 01:06:57;;;;;;;28.23;14.00;;;5.40;99.90;4.50;99315;;;;568067;249;24110;-74
2023/04/13 01:09:25;;;;;;;27.10;14.90;;;5.30;99.90;4.40;99311;;;;567288;249;24123;-76
2023/04/13 01:11:55;;;;;;;29.17;15.37;;;5.30;99.90;4.30;99318;;;;575918;249;24207;-75
2023/04/13 01:14:32;;;;;;;20.13;13.97;;;5.20;99.90;4.20;99311;;;;565590;249;24161;-76
2023/04/13 01:17:04;;;;;;;22.60;13.93;;;5.10;99.90;4.20;99309;;;;567835;249;24118;-76
2023/04/13 01:19:34;;;;;;;26.43;13.90;;;5.10;99.90;4.20;99297;;;;575745;249;24148;-77
2023/04/13 01:22:01;;;;;;;22.30;14.10;;;5.00;99.90;4.20;99284;;;;564649;249;24160;-75
2023/04/13 01:24:42;;;;;;;27.10;15.73;;;5.10;99.90;4.20;99280;;;;567612;249;24153;-76
2023/04/13 01:27:22;;;;;;;22.80;14.43;;;5.00;99.90;4.20;99270;;;;575367;244;24110;-76
2023/04/13 01:29:49;;;;;;;22.10;14.67;;;5.10;99.90;4.30;99268;;;;565330;249;24121;-75
2023/04/13 01:32:17;;;;;;;27.83;15.77;;;5.10;99.90;4.20;99281;;;;570700;249;24087;-76
2023/04/13 01:34:45;;;;;;;25.03;14.10;;;5.10;99.90;4.20;99281;;;;578847;244;24105;-74
2023/04/13 01:37:16;;;;;;;22.67;14.97;;;5.10;99.90;4.20;99283;;;;567970;249;24143;-73
2023/04/13 01:39:41;;;;;;;27.10;15.40;;;5.00;99.90;4.20;99279;;;;567831;249;24098;-77
2023/04/13 01:42:09;;;;;;;28.20;16.40;;;5.10;99.90;4.20;99281;;;;568104;249;24087;-76
2023/04/13 01:44:38;;;;;;;25.40;14.43;;;5.00;99.90;4.20;99280;;;;568835;248;24118;-78
2023/04/13 01:47:15;;;;;;;28.63;14.70;;;5.10;99.90;4.20;99280;;;;570010;248;24125;-77
2023/04/13 01:49:46;;;;;;;24.37;14.07;;;5.00;99.90;4.30;99287;;;;577703;246;24086;-79
2023/04/13 01:52:14;;;;;;;30.57;15.07;;;5.10;99.90;4.30;99290;;;;577365;249;24089;-77
2023/04/13 01:54:44;;;;;;;19.30;13.83;;;5.10;99.90;4.30;99294;;;;577360;249;24136;-75
2023/04/13 01:57:11;;;;;;;25.00;13.30;;;5.10;99.90;4.30;99304;;;;577041;246;24130;-76
2023/04/13 01:59:38;;;;;;;32.30;16.00;;;5.10;99.90;4.20;99292;;;;567949;249;24117;-74
2023/04/13 02:02:06;;;;;;;25.80;14.33;;;5.10;99.90;4.20;99292;;;;568099;249;24130;-75
2023/04/13 02:04:35;;;;;;;22.67;14.17;;;5.00;99.90;4.20;99289;;;;567851;249;24098;-75
2023/04/13 02:07:03;;;;;;;31.60;15.53;;;5.00;99.90;4.20;99287;;;;567958;249;24134;-75
2023/04/13 02:09:31;;;;;;;25.20;14.20;;;5.00;99.90;4.20;99281;;;;567844;249;24106;-75
2023/04/13 02:11:59;;;;;;;26.57;14.53;;;5.00;99.90;4.20;99290;;;;567777;249;24112;-75
2023/04/13 02:14:27;;;;;;;25.17;15.63;;;5.00;99.90;4.20;99294;;;;567843;249;24103;-76
2023/04/13 02:16:55;;;;;;;19.97;13.93;;;5.10;99.90;4.20;99288;;;;567847;249;24091;-74
2023/04/13 02:19:23;;;;;;;24.13;15.50;;;5.10;99.90;4.20;99292;;;;567560;249;24090;-75
2023/04/13 02:21:52;;;;;;;35.35;23.25;;;5.00;99.90;4.30;99297;;;;563050;249;35367;-75
2023/04/13 02:24:18;;;;;;;28.53;15.60;;;5.10;99.90;4.30;99308;;;;567973;249;24075;-75
2023/04/13 02:26:46;;;;;;;22.87;13.60;;;5.10;99.90;4.40;99297;;;;567976;249;24079;-75
2023/04/13 02:29:15;;;;;;;31.43;15.03;;;5.20;99.90;4.50;99295;;;;568054;249;24086;-75
2023/04/13 02:31:44;;;;;;;26.87;15.40;;;5.40;99.90;4.50;99297;;;;567669;249;24224;-76
2023/04/13 02:34:11;;;;;;;27.10;15.77;;;5.40;99.90;4.60;99307;;;;567597;249;24098;-75
2023/04/13 02:36:39;;;;;;;26.87;16.23;;;5.40;99.90;4.70;99305;;;;567776;249;24100;-75
2023/04/13 02:39:07;;;;;;;30.10;16.87;;;5.50;99.90;4.80;99309;;;;567489;249;24146;-74
2023/04/13 02:41:35;;;;;;;29.47;16.23;;;5.70;99.90;4.80;99314;;;;567498;249;24167;-74
2023/04/13 02:44:03;;;;;;;27.57;15.30;;;5.60;99.90;4.90;99313;;;;567656;249;24134;-75
2023/04/13 02:46:31;;;;;;;28.20;16.87;;;5.70;99.90;4.90;99311;;;;567590;249;24079;-76
2023/04/13 02:48:59;;;;;;;25.80;16.43;;;5.80;99.90;5.00;99310;;;;567719;249;24148;-77
2023/04/13 02:51:27;;;;;;;26.97;16.10;;;5.80;99.90;5.00;99315;;;;567627;249;24136;-75
2023/04/13 02:53:55;;;;;;;23.50;16.00;;;5.90;99.90;5.10;99317;;;;567753;249;24086;-76
2023/04/13 02:56:24;;;;;;;27.20;17.03;;;5.90;99.90;5.10;99318;;;;568392;248;24106;-78
2023/04/13 02:58:51;;;;;;;34.97;16.57;;;6.00;99.90;5.20;99313;;;;568722;249;24120;-78
2023/04/13 03:01:18;;;;;;;25.83;15.80;;;6.00;99.90;5.20;99311;;;;568851;249;24114;-79
2023/04/13 03:03:46;;;;;;;32.03;15.93;;;6.00;99.90;5.20;99312;;;;568731;249;24108;-77
2023/04/13 03:06:14;;;;;;;32.43;16.63;;;6.00;99.90;5.20;99304;;;;568538;249;24193;-76
2023/04/13 03:08:42;;;;;;;26.07;15.23;;;6.10;99.90;5.30;99311;;;;568522;249;24085;-77
2023/04/13 03:11:10;;;;;;;31.03;17.00;;;6.10;99.90;5.30;99310;;;;568473;249;25167;-78
2023/04/13 03:13:38;;;;;;;25.13;16.17;;;6.20;99.90;5.30;99321;;;;568553;249;24151;-77
2023/04/13 03:16:09;;;;;;;30.60;16.80;;;6.20;99.90;5.40;99327;;;;568238;249;24161;-75
2023/04/13 03:18:35;;;;;;;24.60;15.63;;;6.20;99.90;5.40;99321;;;;568278;249;24141;-76
2023/04/13 03:21:04;;;;;;;31.90;16.90;;;6.30;99.90;5.40;99326;;;;568052;249;24127;-78
2023/04/13 03:23:31;;;;;;;35.42;24.10;;;6.30;99.90;5.50;99327;;;;563196;249;35291;-76
2023/04/13 03:25:59;;;;;;;30.43;18.33;;;6.30;99.90;5.50;99326;;;;568417;249;24117;-76
2023/04/13 03:28:27;;;;;;;28.97;16.27;;;6.40;99.90;5.60;99323;;;;568207;249;24072;-77
2023/04/13 03:30:55;;;;;;;28.27;16.43;;;6.40;99.90;5.60;99326;;;;568118;249;24071;-74
2023/04/13 03:33:23;;;;;;;25.43;14.73;;;6.50;99.90;5.70;99323;;;;567991;249;24088;-75
2023/04/13 03:35:51;;;;;;;23.47;13.93;;;6.50;99.90;5.70;99326;;;;567953;249;24083;-75
2023/04/13 03:38:19;;;;;;;25.20;15.13;;;6.60;99.90;5.70;99338;;;;567970;249;24128;-75
2023/04/13 03:40:47;;;;;;;29.13;15.57;;;6.50;99.90;5.80;99343;;;;567908;249;24104;-75
2023/04/13 03:43:15;;;;;;;27.57;16.93;;;6.60;99.90;5.80;99337;;;;568038;249;24122;-76
2023/04/13 03:45:43;;;;;;;23.40;14.60;;;6.60;99.90;5.80;99330;;;;568043;249;24082;-75
2023/04/13 03:48:11;;;;;;;25.63;15.30;;;6.70;99.90;5.80;99338;;;;567935;249;24084;-75
2023/04/13 03:50:39;;;;;;;26.67;14.03;;;6.70;99.90;5.90;99325;;;;566155;249;24120;-74
2023/04/13 03:53:07;;;;;;;26.40;14.83;;;6.70;99.90;5.90;99320;;;;567952;249;24127;-75
2023/04/13 03:55:35;;;;;;;26.37;14.87;;;6.70;99.90;5.90;99324;;;;567945;249;24126;-74
2023/04/13 03:58:02;;;;;;;27.37;16.27;;;6.70;99.90;5.90;99325;;;;567802;249;24162;-73
2023/04/13 04:00:30;;;;;;;29.53;15.03;;;6.70;99.90;5.90;99333;;;;567964;249;24098;-74
2023/04/13 04:02:58;;;;;;;19.27;11.90;;;6.70;99.90;5.80;99335;;;;568002;249;26341;-74
2023/04/13 04:05:26;;;;;;;20.47;13.50;;;6.60;99.90;5.80;99340;;;;568021;249;24095;-75
2023/04/13 04:07:55;;;;;;;19.73;13.00;;;6.60;99.90;5.70;99337;;;;568724;248;24078;-75
2023/04/13 04:10:23;;;;;;;25.50;13.97;;;6.60;99.90;5.70;99335;;;;569174;249;24119;-77
2023/04/13 04:12:51;;;;;;;25.10;14.90;;;6.60;99.90;5.70;99335;;;;568897;249;24087;-76
2023/04/13 04:15:19;;;;;;;22.43;12.40;;;6.50;99.90;5.70;99340;;;;568825;249;24103;-78
2023/04/13 04:17:46;;;;;;;21.23;13.50;;;6.50;99.90;5.70;99340;;;;568870;249;24066;-77
2023/04/13 04:20:15;;;;;;;25.97;13.73;;;6.50;99.90;5.70;99342;;;;568725;249;26311;-77
2023/04/13 04:22:43;;;;;;;23.47;12.67;;;6.50;99.90;5.60;99342;;;;568287;249;24082;-78
2023/04/13 04:25:10;;;;;;;22.33;12.57;;;6.50;99.90;5.70;99340;;;;568398;249;24090;-77
2023/04/13 04:27:38;;;;;;;26.13;13.60;;;6.50;99.90;5.70;99346;;;;568420;249;24165;-76
2023/04/13 04:30:10;;;;;;;22.90;12.30;;;6.50;99.90;5.70;99343;;;;568565;249;24151;-75
2023/04/13 04:32:35;;;;;;;25.83;14.23;;;6.50;99.90;5.80;99338;;;;565248;249;24135;-75
2023/04/13 04:35:03;;;;;;;18.60;12.03;;;6.60;99.90;5.90;99341;;;;569227;249;24098;-78
2023/04/13 04:37:36;;;;;;;21.60;13.37;;;6.70;99.90;5.90;99338;;;;567121;249;24111;-75
2023/04/13 04:39:59;;;;;;;20.20;13.33;;;6.80;99.90;6.00;99343;;;;568468;249;24102;-74
2023/04/13 04:42:27;;;;;;;20.43;13.03;;;6.80;99.90;6.10;99344;;;;569221;247;24117;-79
2023/04/13 04:44:55;;;;;;;21.30;13.17;;;6.90;99.90;6.20;99347;;;;579052;244;24055;-79
2023/04/13 04:47:23;;;;;;;16.43;10.77;;;7.00;99.90;6.30;99353;;;;574847;244;24052;-77
2023/04/13 04:49:51;;;;;;;20.50;12.70;;;7.20;99.90;6.40;99350;;;;578403;245;25153;-79
2023/04/13 04:52:19;;;;;;;24.50;12.27;;;7.20;99.90;6.60;99356;;;;576218;245;24073;-78
2023/04/13 04:54:47;;;;;;;21.73;12.83;;;7.40;99.90;6.70;99359;;;;576328;245;24064;-80
2023/04/13 04:57:15;;;;;;;20.87;12.03;;;7.50;99.90;6.90;99364;;;;576215;245;24039;-78
2023/04/13 04:59:43;;;;;;;22.13;13.33;;;7.60;99.90;7.10;99352;;;;578845;245;24064;-77
2023/04/13 05:02:11;;;;;;;23.67;14.10;;;7.90;99.90;7.60;99361;;;;578774;245;24034;-77
2023/04/13 05:04:38;;;;;;;24.17;14.07;;;8.20;99.90;8.30;99360;;;;578913;245;24037;-79
2023/04/13 05:07:08;;;;;;;24.33;17.20;;;9.60;99.90;9.10;99367;;;;570781;245;35028;-76
2023/04/13 05:09:36;;;;;;;20.23;13.97;;;9.50;99.90;9.60;99365;;;;578704;245;24048;-78
2023/04/13 05:12:03;;;;;;;16.37;12.53;;;10.20;99.90;10.10;99365;;;;578701;245;24041;-79
2023/04/13 05:14:31;;;;;;;17.27;11.30;;;10.70;99.90;10.80;99362;;;;578781;245;24056;-78
2023/04/13 05:17:02;;;;;;;16.47;11.47;;;11.30;99.90;11.70;99360;;;;578799;245;24083;-77
2023/04/13 05:19:27;;;;;;;21.60;14.37;;;12.20;99.90;12.70;99362;;;;574136;244;35082;-76
2023/04/13 05:21:55;;;;;;;17.63;13.20;;;13.10;99.90;13.40;99366;;;;579941;244;24055;-76
2023/04/13 05:24:22;;;;;;;17.40;13.60;;;13.90;99.90;13.70;99360;;;;578791;244;24057;-77
2023/04/13 05:26:51;;;;;;;17.80;12.53;;;14.40;99.90;13.80;99360;;;;579132;244;24150;-78
2023/04/13 05:29:18;;;;;;;17.00;12.50;;;14.50;99.90;13.50;99352;;;;579075;244;24042;-77
2023/04/13 05:31:46;;;;;;;18.53;14.10;;;14.40;99.90;13.50;99357;;;;578903;244;24029;-77
2023/04/13 05:34:15;;;;;;;21.83;12.30;;;14.30;99.90;13.40;99342;;;;578897;244;24075;-76
2023/04/13 05:36:42;;;;;;;23.70;13.50;;;14.20;99.90;13.40;99344;;;;578915;244;24103;-77
2023/04/13 05:39:10;;;;;;;19.40;11.80;;;14.20;99.90;13.60;99346;;;;578619;245;24020;-77
2023/04/13 05:41:38;;;;;;;17.57;13.30;;;14.30;99.90;13.90;99345;;;;578790;245;24099;-77
2023/04/13 05:44:06;;;;;;;22.00;14.27;;;14.50;99.90;14.00;99344;;;;582426;243;24072;-77
2023/04/13 05:46:34;;;;;;;18.63;12.87;;;14.60;99.90;14.40;99355;;;;578766;245;24040;-77
2023/04/13 05:49:02;;;;;;;18.40;11.77;;;14.90;99.90;14.40;99352;;;;578726;245;24030;-80
2023/04/13 05:51:32;;;;;;;16.57;12.67;;;15.10;99.90;14.30;99361;;;;578574;245;24071;-78
2023/04/13 05:53:57;;;;;;;14.73;10.87;;;15.00;99.90;14.40;99354;;;;578556;245;24095;-77
2023/04/13 05:56:28;;;;;;;18.87;12.83;;;15.10;99.90;14.50;99358;;;;578344;245;24083;-77
2023/04/13 05:58:53;;;;;;;18.80;12.87;;;15.20;99.90;14.80;99367;;;;587381;242;24069;-77
2023/04/13 06:01:24;;;;;;;28.57;13.60;;;15.40;99.90;15.30;99362;;;;578443;245;24064;-77
2023/04/13 06:03:51;;;;;;;19.83;13.53;;;15.80;99.90;15.90;99375;;;;586938;244;24037;-76
2023/04/13 06:06:19;;;;;;;21.07;14.07;;;16.80;99.90;16.30;99362;;;;578369;245;24069;-77
2023/04/13 06:08:46;;;;;;;19.87;14.33;;;16.80;99.90;16.70;99368;;;;578270;245;24093;-77
2023/04/13 06:11:14;;;;;;;17.80;13.97;;;17.20;99.90;17.20;99382;;;;578524;245;24066;-77
2023/04/13 06:13:43;;;;;;;24.40;14.53;;;18.20;99.90;17.70;99373;;;;578393;245;24069;-78
2023/04/13 06:16:12;;;;;;;22.23;15.07;;;18.70;99.90;18.30;99365;;;;578258;245;24084;-77
2023/04/13 06:18:39;;;;;;;17.73;14.33;;;18.70;99.90;18.50;99370;;;;578414;245;24027;-76
2023/04/13 06:21:07;;;;;;;21.03;14.07;;;19.10;99.30;18.90;99368;;;;578326;245;24069;-77
2023/04/13 06:23:36;;;;;;;19.50;14.87;;;19.50;98.30;19.30;99380;;;;578453;245;24025;-77
2023/04/13 06:26:07;;;;;;;19.20;14.97;;;19.80;96.70;19.50;99381;;;;578767;242;24041;-77
2023/04/13 06:28:31;;;;;;;20.03;14.83;;;20.10;95.70;19.90;99386;;;;578546;245;24038;-77
2023/04/13 06:30:59;;;;;;;21.20;15.77;;;20.50;94.60;20.50;99388;;;;579406;244;23069;-76
2023/04/13 06:33:26;;;;;;;21.97;15.67;;;20.90;92.00;20.50;99396;;;;580085;244;23081;-76
2023/04/13 06:35:55;;;;;;;19.53;16.87;;;21.10;90.90;20.50;99393;;;;579775;244;24037;-78
2023/04/13 06:38:22;;;;;;;21.73;17.13;;;21.20;88.70;20.90;99394;;;;579236;244;24077;-78
2023/04/13 06:40:50;;;;;;;18.67;16.30;;;21.40;87.20;21.30;99392;;;;579111;244;24019;-77
2023/04/13 06:43:18;;;;;;;21.07;15.83;;;21.80;86.20;22.40;99390;;;;578934;244;24027;-76
2023/04/13 06:45:46;;;;;;;23.33;16.70;;;22.60;83.70;23.40;99394;;;;578909;244;24068;-76
2023/04/13 06:48:14;;;;;;;20.30;16.80;;;23.70;77.60;24.30;99396;;;;586980;244;23122;-80
2023/04/13 06:50:43;;;;;;;21.47;16.60;;;24.60;72.30;24.20;99398;;;;578569;245;24053;-78
2023/04/13 06:53:10;;;;;;;23.97;18.47;;;24.90;68.60;23.70;99397;;;;578732;245;24117;-76
2023/04/13 06:55:39;;;;;;;18.60;16.70;;;24.70;66.60;24.20;99396;;;;578654;245;23157;-77
2023/04/13 06:58:06;;;;;;;23.55;20.73;;;24.70;66.60;25.30;99401;;;;573744;245;35202;-78
2023/04/13 07:00:34;;;;;;;22.90;18.83;;;25.60;64.70;26.20;99407;;;;578727;245;23142;-76
2023/04/13 07:03:03;;;;;;;19.33;17.50;;;26.90;58.70;26.40;99410;;;;578616;245;24064;-77
2023/04/13 07:05:32;;;;;;;20.93;18.00;;;26.80;58.20;26.10;99407;;;;578742;245;23133;-75
2023/04/13 07:08:00;;;;;;;19.93;18.03;;;26.70;58.10;25.80;99411;;;;578417;245;24071;-76
2023/04/13 07:10:28;;;;;;;21.27;18.33;;;26.60;57.90;25.90;99410;;;;578551;245;23043;-76
2023/04/13 07:12:55;;;;;;;22.30;19.13;;;26.60;58.60;26.40;99416;;;;578438;245;23052;-77
2023/04/13 07:15:23;;;;;;;20.20;18.03;;;26.90;58.00;27.30;99424;;;;578350;245;23070;-77
2023/04/13 07:17:51;;;;;;;23.07;18.70;;;27.60;57.50;28.40;99419;;;;578479;245;23078;-77
2023/04/13 07:20:19;;;;;;;19.65;17.65;;;28.70;55.50;29.40;99429;;;;578365;245;23087;-77
2023/04/13 07:22:47;;;;;;;19.37;17.33;;;29.60;53.30;30.50;99430;;;;578492;245;24085;-75
2023/04/13 07:25:15;;;;;;;18.30;16.37;;;30.70;52.50;31.40;99426;;;;578469;245;23057;-76
2023/04/13 07:27:43;;;;;;;18.90;16.20;;;31.70;50.00;32.20;99426;;;;578761;245;23087;-76
2023/04/13 07:30:11;;;;;;;16.77;15.27;;;32.50;49.30;33.30;99434;;;;578803;245;23046;-77
2023/04/13 07:32:39;;;;;;;18.15;16.35;;;33.60;46.70;33.80;99433;;;;578705;245;24054;-77
2023/04/13 07:35:07;;;;;;;20.15;18.20;;;34.30;44.50;33.80;99431;;;;578748;245;23095;-77
2023/04/13 07:37:35;;;;;;;18.73;17.02;;;34.30;43.20;33.40;99433;;;;578748;245;23048;-75
2023/04/13 07:40:05;;;;;;;18.70;16.65;;;34.30;43.30;33.50;99429;;;;578527;245;23118;-78
2023/04/13 07:42:32;;;;;;;17.80;16.12;;;34.20;43.20;34.10;99433;;;;579066;244;23068;-77
2023/04/13 07:45:00;;;;;;;17.48;15.90;;;34.60;42.10;34.20;99432;;;;579591;244;24030;-79
2023/04/13 07:47:28;;;;;;;18.10;16.50;;;34.80;42.30;34.70;99441;;;;579372;244;23071;-77
2023/04/13 07:49:56;;;;;;;17.10;15.32;;;35.20;41.80;34.90;99446;;;;579167;244;23043;-77
2023/04/13 07:52:24;;;;;;;16.33;15.02;;;35.50;41.40;35.00;99438;;;;579119;244;23119;-79
2023/04/13 07:54:52;;;;;;;16.90;15.50;;;35.80;40.50;34.90;99444;;;;579010;244;24080;-79
2023/04/13 07:57:21;;;;;;;16.55;14.85;;;35.40;40.40;34.40;99445;;;;579100;244;23075;-77
2023/04/13 07:59:49;;;;;;;17.05;15.45;;;34.60;41.30;33.60;99445;;;;578958;244;23056;-77
2023/04/13 08:02:20;;;;;;;17.42;15.68;;;34.30;41.40;33.40;99448;;;;578680;245;23054;-76
2023/04/13 08:04:46;;;;;;;17.37;15.85;;;34.30;41.40;32.70;99452;;;;578847;245;24059;-76
2023/04/13 08:07:14;;;;;;;17.90;16.27;;;33.90;41.50;31.90;99449;;;;578731;243;23053;-77
2023/04/13 08:09:42;;;;;;;15.73;14.35;;;32.60;42.50;31.10;99448;;;;578854;245;23046;-79
2023/04/13 08:12:10;;;;;;;16.83;15.27;;;32.50;42.50;31.30;99445;;;;578723;245;24052;-79
2023/04/13 08:14:38;;;;;;;15.60;14.20;;;32.30;43.00;31.90;99448;;;;579094;245;26263;-79
2023/04/13 08:17:07;;;;;;;15.68;14.25;;;32.80;41.50;31.70;99455;;;;578734;245;23070;-78
2023/04/13 08:19:35;;;;;;;14.75;13.32;;;32.80;41.50;31.20;99451;;;;578430;245;23058;-79
2023/04/13 08:22:03;;;;;;;15.52;14.05;;;32.40;41.90;31.70;99441;;;;578495;245;23066;-79
2023/04/13 08:24:30;;;;;;;16.15;14.65;;;32.60;41.60;32.00;99444;;;;578469;245;23047;-78
2023/04/13 08:26:58;;;;;;;15.02;13.70;;;32.80;41.30;31.40;99449;;;;578543;245;23098;-78
2023/04/13 08:29:26;;;;;;;15.25;13.77;;;32.50;41.00;30.40;99453;;;;578847;245;23062;-75
2023/04/13 08:31:55;;;;;;;21.73;13.90;;;31.80;41.70;30.20;99458;;;;578795;245;23052;-80
2023/04/13 08:34:22;;;;;;;17.05;13.57;;;31.30;42.60;30.70;99460;;;;578829;245;23061;-79
2023/04/13 08:36:50;;;;;;;14.40;13.10;;;31.40;43.50;31.50;99458;;;;578824;245;23095;-78
2023/04/13 08:39:18;;;;;;;41.35;17.42;;;32.00;42.50;31.80;99465;;;;578813;245;23078;-79
2023/04/13 08:41:49;;;;;;;15.20;13.77;;;32.50;42.00;31.60;99457;;;;578376;245;23031;-79
2023/04/13 08:44:17;;;;;;;16.25;13.88;;;32.60;41.00;31.70;99468;;;;575808;245;23066;-80
2023/04/13 08:46:49;;;;;;;23.10;14.55;;;32.70;41.00;30.70;99468;;;;578439;245;24058;-78
2023/04/13 08:49:15;;;;;;;19.27;14.80;;;32.20;41.00;29.10;99466;;;;572947;245;45956;-78
2023/04/13 08:51:42;;;;;;;16.83;12.60;;;31.00;41.50;28.10;99467;;;;578508;245;23066;-77
2023/04/13 08:54:10;;;;;;;14.45;13.00;;;29.90;42.90;28.40;99472;;;;578964;244;23082;-76
2023/04/13 08:56:36;;;;;;;13.50;12.27;;;29.60;43.70;27.60;99467;;;;579746;244;24082;-76
2023/04/13 08:59:08;;;;;;;14.65;13.27;;;29.00;43.80;27.00;99469;;;;587270;244;23113;-77
2023/04/13 09:01:33;;;;;;;13.20;12.00;;;28.20;45.20;28.00;99461;;;;579711;244;23116;-76
2023/04/13 09:04:09;;;;;;;13.52;12.32;;;28.70;44.70;29.40;99458;;;;579183;244;23043;-77
2023/04/13 09:06:39;;;;;;;12.98;11.88;;;29.90;43.60;30.10;99452;;;;577302;248;24112;-77
2023/04/13 09:09:05;;;;;;;12.90;11.60;;;30.80;42.70;30.70;99459;;;;565541;249;23093;-77
2023/04/13 09:11:33;;;;;;;11.70;10.70;;;31.60;42.10;31.40;99459;;;;578956;244;23078;-76
2023/04/13 09:14:01;;;;;;;11.95;10.95;;;32.40;40.30;31.90;99466;;;;567690;248;23102;-76
2023/04/13 09:16:29;;;;;;;12.25;11.25;;;33.10;39.50;32.40;99473;;;;579239;247;23185;-76
2023/04/13 09:18:57;;;;;;;12.37;11.27;;;33.70;39.20;32.40;99463;;;;570895;247;23123;-77
2023/04/13 09:21:26;;;;;;;11.55;10.52;;;33.90;39.00;32.70;99463;;;;570543;248;23159;-77
2023/04/13 09:23:58;;;;;;;11.30;10.20;;;34.10;38.10;33.30;99465;;;;569711;248;24220;-77
2023/04/13 09:26:26;;;;;;;13.75;11.32;;;34.60;37.60;33.80;99470;;;;578648;248;23107;-76
2023/04/13 09:28:57;;;;;;;12.18;11.05;;;35.10;37.70;34.40;99465;;;;579018;244;23137;-75
2023/04/13 09:31:25;;;;;;;14.27;11.27;;;35.70;37.20;35.30;99477;;;;579337;245;23093;-77
2023/04/13 09:33:53;;;;;;;11.82;10.73;;;36.60;36.20;35.20;99481;;;;579315;248;23099;-76
2023/04/13 09:36:21;;;;;;;11.93;10.93;;;36.90;36.10;34.60;99474;;;;579351;248;23100;-76
2023/04/13 09:38:52;;;;;;;13.10;11.90;;;36.70;35.60;34.60;99485;;;;570591;248;23123;-77
2023/04/13 09:41:35;;;;;;;15.15;11.43;;;36.50;36.00;34.80;99472;;;;570135;248;23151;-76
2023/04/13 09:44:03;;;;;;;13.40;12.15;;;36.50;36.20;34.80;99469;;;;578656;244;23113;-77
2023/04/13 09:46:31;;;;;;;11.70;10.68;;;36.40;36.40;35.10;99471;;;;569738;248;23196;-76
2023/04/13 09:49:02;;;;;;;11.98;10.77;;;36.60;36.00;35.70;99463;;;;578985;248;23117;-77
2023/04/13 09:51:36;;;;;;;12.45;11.52;;;37.10;35.90;36.50;99476;;;;570138;248;23135;-75
2023/04/13 09:54:07;;;;;;;12.35;11.45;;;38.00;35.40;36.40;99474;;;;565121;248;46306;-74
2023/04/13 09:56:45;;;;;;;11.45;10.55;;;37.90;34.30;35.50;99481;;;;578636;244;23146;-75
2023/04/13 09:59:12;;;;;;;11.65;10.63;;;37.80;34.20;34.50;99471;;;;570062;248;23207;-76
2023/04/13 10:01:40;;;;;;;11.45;10.35;;;37.00;35.10;34.10;99468;;;;570118;248;23103;-75
2023/04/13 10:04:08;;;;;;;11.07;9.48;;;36.50;34.80;33.40;99475;;;;570344;248;23111;-76
2023/04/13 10:06:39;;;;;;;10.85;9.68;;;35.90;34.90;32.40;99480;;;;580041;246;23100;-76
2023/04/13 10:09:10;;;;;;;11.52;10.50;;;34.90;35.70;30.30;99472;;;;571448;248;23106;-77
2023/04/13 10:11:41;;;;;;;10.13;8.98;;;33.00;37.30;29.00;99478;;;;570937;248;23112;-78
2023/04/13 10:14:09;;;;;;;9.18;8.38;;;31.50;37.90;27.20;99474;;;;579534;245;23130;-77
2023/04/13 10:16:36;;;;;;;9.20;8.30;;;29.50;39.60;25.80;99468;;;;570763;248;23174;-76
2023/04/13 10:19:10;;;;;;;9.10;8.30;;;27.90;41.20;25.30;99468;;;;569924;248;23161;-79
2023/04/13 10:21:39;;;;;;;10.80;9.40;;;25.70;44.70;24.20;99467;;;;570742;248;23096;-76
2023/04/13 10:24:11;;;;;;;9.53;8.63;;;24.80;46.20;23.50;99466;;;;570549;248;24154;-77
2023/04/13 10:26:36;;;;;;;12.73;9.37;;;24.70;46.10;23.20;99471;;;;570410;248;24143;-76
2023/04/13 10:29:04;;;;;;;11.03;8.53;;;24.30;47.90;23.20;99468;;;;579304;248;24080;-77
2023/04/13 10:31:45;;;;;;;10.37;9.27;;;24.00;48.00;22.60;99456;;;;571040;248;24082;-78
2023/04/13 10:34:11;;;;;;;10.50;9.33;;;23.60;48.40;22.30;99469;;;;570523;248;24083;-77
2023/04/13 10:36:42;;;;;;;10.13;9.13;;;23.20;50.10;21.50;99468;;;;570768;248;24080;-76
2023/04/13 10:39:10;;;;;;;11.83;10.17;;;22.50;51.10;21.20;99460;;;;570596;248;24114;-78
2023/04/13 10:41:39;;;;;;;14.03;11.40;;;21.70;53.10;20.90;99466;;;;579648;248;24226;-76
2023/04/13 10:44:08;;;;;;;20.50;10.37;;;21.40;53.80;20.70;99465;;;;579168;248;24070;-76
2023/04/13 10:46:36;;;;;;;10.70;8.47;;;21.10;54.40;20.50;99466;;;;579017;244;24097;-76
2023/04/13 10:49:04;;;;;;;11.60;8.70;;;21.10;54.40;20.40;99467;;;;579214;248;23114;-77
2023/04/13 10:51:42;;;;;;;16.47;8.33;;;20.90;54.40;20.00;99468;;;;579066;248;24081;-76
2023/04/13 10:54:09;;;;;;;7.83;7.10;;;20.60;54.10;19.70;99466;;;;570259;248;24084;-76
2023/04/13 10:56:39;;;;;;;8.87;7.97;;;20.30;54.70;19.40;99470;;;;579210;243;24039;-76
2023/04/13 10:59:07;;;;;;;8.57;7.53;;;20.00;55.00;19.20;99457;;;;579119;244;24025;-76
2023/04/13 11:01:35;;;;;;;11.53;8.47;;;19.80;55.40;18.90;99463;;;;578695;244;24061;-76
2023/04/13 11:04:03;;;;;;;10.10;7.43;;;19.50;56.30;18.60;99468;;;;578571;244;24060;-79
2023/04/13 11:06:36;;;;;;;9.80;7.37;;;19.20;57.70;18.30;99459;;;;587614;244;24077;-79
2023/04/13 11:09:05;;;;;;;11.90;7.83;;;18.70;58.40;18.20;99461;;;;577000;244;24067;-79
2023/04/13 11:11:33;;;;;;;17.27;8.07;;;18.70;58.30;17.80;99460;;;;567037;244;24119;-77
2023/04/13 11:14:00;;;;;;;14.60;8.10;;;18.50;57.40;17.60;99463;;;;579049;244;24033;-76